Private Wetterstation Sandau
Wetterdaten: Samstag, 29.09.2012
Datum Zeit Temp. A. Feuchte A. Luftdruck Regen Wind Richtung Richtung Taupunkt Windchill
29.09.2012 00:01 11,2 C 81 % 1016,7 hPa 0,0 l/m 5,8 km/h (2 Bft) S-SW 202 8,1 C 11,2 C
29.09.2012 00:06 11,3 C 81 % 1016,7 hPa 0,0 l/m 7,6 km/h (2 Bft) S-SW 202 8,2 C 11,3 C
29.09.2012 00:11 11,3 C 81 % 1016,6 hPa 0,0 l/m 3,2 km/h (1 Bft) S-SO 157 8,2 C 11,3 C
29.09.2012 00:16 11,4 C 81 % 1016,5 hPa 0,0 l/m 2,9 km/h (1 Bft) S-SO 157 8,3 C 11,4 C
29.09.2012 00:21 11,4 C 81 % 1016,4 hPa 0,0 l/m 6,1 km/h (2 Bft) S-SO 157 8,3 C 11,4 C
29.09.2012 00:26 11,5 C 81 % 1016,4 hPa 0,0 l/m 2,9 km/h (1 Bft) S-SO 157 8,4 C 11,5 C
29.09.2012 00:31 11,5 C 81 % 1016,4 hPa 0,0 l/m 7,9 km/h (2 Bft) S 180 8,4 C 11,5 C
29.09.2012 00:36 11,6 C 81 % 1016,4 hPa 0,0 l/m 3,6 km/h (1 Bft) S-SW 202 8,5 C 11,6 C
29.09.2012 00:41 11,6 C 81 % 1016,3 hPa 0,0 l/m 4,7 km/h (1 Bft) S 180 8,5 C 11,6 C
29.09.2012 00:46 11,6 C 81 % 1016,4 hPa 0,0 l/m 5,4 km/h (1 Bft) S-SW 202 8,5 C 11,6 C
29.09.2012 00:51 11,6 C 80 % 1016,3 hPa 0,0 l/m 3,6 km/h (1 Bft) S 180 8,3 C 11,6 C
29.09.2012 00:56 11,6 C 80 % 1016,2 hPa 0,0 l/m 4,3 km/h (1 Bft) S-SO 157 8,3 C 11,6 C
29.09.2012 01:01 11,6 C 80 % 1016,2 hPa 0,0 l/m 3,6 km/h (1 Bft) S-SW 202 8,3 C 11,6 C
29.09.2012 01:06 11,4 C 80 % 1016,3 hPa 0,0 l/m 5,4 km/h (1 Bft) S 180 8,1 C 11,4 C
29.09.2012 01:11 11,3 C 80 % 1016,3 hPa 0,0 l/m 2,2 km/h (1 Bft) S-SW 202 8,0 C 11,3 C
29.09.2012 01:16 11,3 C 80 % 1016,3 hPa 0,0 l/m 1,1 km/h (1 Bft) S-SO 157 8,0 C 11,3 C
29.09.2012 01:21 11,2 C 81 % 1016,2 hPa 0,0 l/m 2,2 km/h (1 Bft) S-SO 157 8,1 C 11,2 C
29.09.2012 01:26 11,1 C 81 % 1016,3 hPa 0,0 l/m 0,0 km/h (0 Bft) S-SW 202 8,0 C 11,1 C
29.09.2012 01:31 11,0 C 81 % 1016,3 hPa 0,0 l/m 2,2 km/h (1 Bft) S 180 7,9 C 11,0 C
29.09.2012 01:36 10,9 C 81 % 1016,3 hPa 0,0 l/m 4,7 km/h (1 Bft) S-SO 157 7,8 C 10,9 C
29.09.2012 01:41 10,9 C 81 % 1016,4 hPa 0,0 l/m 2,9 km/h (1 Bft) S-SO 157 7,8 C 10,9 C
29.09.2012 01:46 10,9 C 81 % 1016,3 hPa 0,0 l/m 5,8 km/h (2 Bft) S-SW 202 7,8 C 10,9 C
29.09.2012 01:51 10,8 C 82 % 1016,2 hPa 0,0 l/m 6,5 km/h (2 Bft) S-SO 157 7,9 C 10,8 C
29.09.2012 01:56 10,8 C 82 % 1015,9 hPa 0,0 l/m 7,6 km/h (2 Bft) SW 225 7,9 C 10,8 C
29.09.2012 02:01 10,8 C 82 % 1015,9 hPa 0,0 l/m 3,2 km/h (1 Bft) S-SO 157 7,9 C 10,8 C
29.09.2012 02:06 10,7 C 82 % 1016,0 hPa 0,0 l/m 6,1 km/h (2 Bft) S-SW 202 7,8 C 10,7 C
29.09.2012 02:11 10,6 C 82 % 1016,0 hPa 0,0 l/m 7,2 km/h (2 Bft) S-SO 157 7,7 C 10,6 C
29.09.2012 02:16 10,5 C 82 % 1015,9 hPa 0,0 l/m 7,9 km/h (2 Bft) SW 225 7,6 C 10,5 C
29.09.2012 02:21 10,4 C 82 % 1015,9 hPa 0,0 l/m 11,5 km/h (2 Bft) S-SW 202 7,5 C 10,4 C
29.09.2012 02:26 10,3 C 82 % 1015,8 hPa 0,0 l/m 8,3 km/h (2 Bft) SW 225 7,4 C 10,3 C
29.09.2012 02:31 10,3 C 82 % 1015,9 hPa 0,0 l/m 6,8 km/h (2 Bft) S 180 7,4 C 10,3 C
29.09.2012 02:36 10,2 C 83 % 1015,9 hPa 0,0 l/m 2,5 km/h (1 Bft) S 180 7,4 C 10,2 C
29.09.2012 02:41 10,1 C 83 % 1015,9 hPa 0,0 l/m 4,3 km/h (1 Bft) S-SW 202 7,3 C 10,1 C
29.09.2012 02:46 9,9 C 83 % 1016,0 hPa 0,0 l/m 4,7 km/h (1 Bft) S-SO 157 7,2 C 9,7 C
29.09.2012 02:51 9,9 C 83 % 1015,9 hPa 0,0 l/m 3,2 km/h (1 Bft) SW 225 7,2 C 9,9 C
29.09.2012 02:56 9,8 C 84 % 1015,8 hPa 0,0 l/m 2,9 km/h (1 Bft) S-SO 157 7,2 C 9,8 C
29.09.2012 03:01 9,8 C 84 % 1015,8 hPa 0,0 l/m 6,5 km/h (2 Bft) SW 225 7,2 C 9,1 C
29.09.2012 03:06 9,7 C 84 % 1015,8 hPa 0,0 l/m 6,5 km/h (2 Bft) S-SW 202 7,1 C 9,0 C
29.09.2012 03:11 9,6 C 84 % 1015,7 hPa 0,0 l/m 3,6 km/h (1 Bft) S 180 7,0 C 9,6 C
29.09.2012 03:16 9,5 C 84 % 1015,7 hPa 0,0 l/m 7,6 km/h (2 Bft) S-SW 202 6,9 C 8,5 C
29.09.2012 03:21 9,5 C 84 % 1015,8 hPa 0,0 l/m 7,2 km/h (2 Bft) S 180 6,9 C 8,6 C
29.09.2012 03:26 9,4 C 84 % 1015,9 hPa 0,0 l/m 3,6 km/h (1 Bft) S 180 6,8 C 9,4 C
29.09.2012 03:31 9,3 C 85 % 1016,0 hPa 0,0 l/m 4,7 km/h (1 Bft) S 180 6,9 C 9,1 C
29.09.2012 03:36 9,3 C 85 % 1016,0 hPa 0,0 l/m 5,8 km/h (2 Bft) S-SW 202 6,9 C 8,7 C
29.09.2012 03:41 9,3 C 85 % 1016,0 hPa 0,0 l/m 7,2 km/h (2 Bft) S-SO 157 6,9 C 8,4 C
29.09.2012 03:46 9,3 C 85 % 1015,9 hPa 0,0 l/m 5,4 km/h (1 Bft) S-SW 202 6,9 C 8,8 C
29.09.2012 03:51 9,2 C 85 % 1015,8 hPa 0,0 l/m 2,2 km/h (1 Bft) S-SO 157 6,8 C 9,2 C
29.09.2012 03:56 9,2 C 85 % 1015,7 hPa 0,0 l/m 8,3 km/h (2 Bft) S-SO 157 6,8 C 8,0 C
29.09.2012 04:01 9,1 C 86 % 1015,6 hPa 0,0 l/m 2,9 km/h (1 Bft) S 180 6,9 C 9,1 C
29.09.2012 04:06 9,1 C 85 % 1015,7 hPa 0,0 l/m 3,2 km/h (1 Bft) S-SO 157 6,7 C 9,1 C
29.09.2012 04:11 9,0 C 86 % 1015,6 hPa 0,0 l/m 3,6 km/h (1 Bft) S-SW 202 6,8 C 9,0 C
29.09.2012 04:16 8,9 C 86 % 1015,6 hPa 0,0 l/m 4,7 km/h (1 Bft) S-SW 202 6,7 C 8,6 C
29.09.2012 04:21 8,9 C 86 % 1015,6 hPa 0,0 l/m 4,7 km/h (1 Bft) S-SW 202 6,7 C 8,6 C
29.09.2012 04:26 8,9 C 86 % 1015,6 hPa 0,0 l/m 4,3 km/h (1 Bft) S 180 6,7 C 8,9 C
29.09.2012 04:31 8,9 C 86 % 1015,6 hPa 0,0 l/m 6,5 km/h (2 Bft) S-SW 202 6,7 C 8,1 C
29.09.2012 04:36 8,8 C 86 % 1015,5 hPa 0,0 l/m 5,4 km/h (1 Bft) S-SO 157 6,6 C 8,3 C
29.09.2012 04:41 8,8 C 87 % 1015,5 hPa 0,0 l/m 6,5 km/h (2 Bft) S-SO 157 6,8 C 8,0 C
29.09.2012 04:46 8,8 C 87 % 1015,5 hPa 0,0 l/m 3,6 km/h (1 Bft) S-SW 202 6,8 C 8,8 C
29.09.2012 04:51 8,8 C 87 % 1015,4 hPa 0,0 l/m 8,3 km/h (2 Bft) S-SW 202 6,8 C 7,5 C
29.09.2012 04:56 8,8 C 87 % 1015,4 hPa 0,0 l/m 2,2 km/h (1 Bft) S-SW 202 6,8 C 8,8 C
29.09.2012 05:01 8,8 C 87 % 1015,3 hPa 0,0 l/m 2,9 km/h (1 Bft) S 180 6,8 C 8,8 C
29.09.2012 05:06 8,8 C 87 % 1015,1 hPa 0,0 l/m 3,2 km/h (1 Bft) S-SO 157 6,8 C 8,8 C
29.09.2012 05:11 8,8 C 87 % 1015,0 hPa 0,0 l/m 7,6 km/h (2 Bft) SW 225 6,8 C 7,7 C
29.09.2012 05:16 8,8 C 87 % 1015,0 hPa 0,0 l/m 4,0 km/h (1 Bft) S-SO 157 6,8 C 8,8 C
29.09.2012 05:21 8,8 C 87 % 1015,0 hPa 0,0 l/m 5,8 km/h (2 Bft) S 180 6,8 C 8,1 C
29.09.2012 05:26 8,7 C 87 % 1015,0 hPa 0,0 l/m 2,9 km/h (1 Bft) S-SO 157 6,7 C 8,7 C
29.09.2012 05:31 8,8 C 87 % 1015,0 hPa 0,0 l/m 15,1 km/h (3 Bft) S-SW 202 6,8 C 6,4 C
29.09.2012 05:36 8,8 C 88 % 1015,0 hPa 0,0 l/m 3,2 km/h (1 Bft) S-SO 157 6,9 C 8,8 C
29.09.2012 05:41 8,9 C 88 % 1015,0 hPa 0,0 l/m 13,3 km/h (3 Bft) S-SW 202 7,0 C 6,8 C
29.09.2012 05:46 8,9 C 88 % 1015,0 hPa 0,0 l/m 0,0 km/h (0 Bft) S 180 7,0 C 8,9 C
29.09.2012 05:51 9,0 C 88 % 1014,9 hPa 0,0 l/m 5,8 km/h (2 Bft) S-SW 202 7,1 C 8,4 C
29.09.2012 05:56 9,1 C 88 % 1014,9 hPa 0,0 l/m 3,2 km/h (1 Bft) S-SW 202 7,2 C 9,1 C
29.09.2012 06:01 9,3 C 88 % 1014,9 hPa 0,0 l/m 5,8 km/h (2 Bft) S 180 7,4 C 8,7 C
29.09.2012 06:06 9,3 C 88 % 1014,9 hPa 0,0 l/m 2,5 km/h (1 Bft) S-SW 202 7,4 C 9,3 C
29.09.2012 06:11 9,4 C 88 % 1014,8 hPa 0,0 l/m 2,2 km/h (1 Bft) S 180 7,5 C 9,4 C
29.09.2012 06:16 9,5 C 88 % 1014,7 hPa 0,0 l/m 2,2 km/h (1 Bft) SO 135 7,6 C 9,5 C
29.09.2012 06:21 9,6 C 88 % 1014,8 hPa 0,0 l/m 2,9 km/h (1 Bft) S-SW 202 7,7 C 9,6 C
29.09.2012 06:26 9,6 C 88 % 1014,8 hPa 0,0 l/m 3,6 km/h (1 Bft) S 180 7,7 C 9,6 C
29.09.2012 06:31 9,6 C 88 % 1014,7 hPa 0,0 l/m 3,6 km/h (1 Bft) SW 225 7,7 C 9,6 C
29.09.2012 06:36 9,8 C 88 % 1014,8 hPa 0,0 l/m 2,9 km/h (1 Bft) S-SO 157 7,9 C 9,8 C
29.09.2012 06:41 9,8 C 88 % 1014,8 hPa 0,0 l/m 3,2 km/h (1 Bft) S 180 7,9 C 9,8 C
29.09.2012 06:46 9,9 C 88 % 1014,7 hPa 0,0 l/m 2,9 km/h (1 Bft) S 180 8,0 C 9,9 C
29.09.2012 06:51 9,9 C 88 % 1014,8 hPa 0,0 l/m 6,8 km/h (2 Bft) SW 225 8,0 C 9,2 C
29.09.2012 06:56 9,9 C 88 % 1014,7 hPa 0,0 l/m 5,4 km/h (1 Bft) SW 225 8,0 C 9,5 C
29.09.2012 07:01 9,9 C 88 % 1014,6 hPa 0,0 l/m 2,5 km/h (1 Bft) S-SW 202 8,0 C 9,9 C
29.09.2012 07:06 9,9 C 88 % 1014,6 hPa 0,0 l/m 3,6 km/h (1 Bft) SW 225 8,0 C 9,9 C
29.09.2012 07:11 9,9 C 88 % 1014,6 hPa 0,0 l/m 7,6 km/h (2 Bft) S-SW 202 8,0 C 9,0 C
29.09.2012 07:16 9,9 C 88 % 1014,7 hPa 0,0 l/m 1,4 km/h (1 Bft) S-SW 202 8,0 C 9,9 C
29.09.2012 07:21 9,9 C 88 % 1014,6 hPa 0,0 l/m 4,0 km/h (1 Bft) S-SW 202 8,0 C 9,9 C
29.09.2012 07:26 9,9 C 88 % 1014,6 hPa 0,0 l/m 3,2 km/h (1 Bft) S-SW 202 8,0 C 9,9 C
29.09.2012 07:31 9,9 C 88 % 1014,7 hPa 0,0 l/m 1,1 km/h (1 Bft) S-SW 202 8,0 C 9,9 C
29.09.2012 07:36 9,9 C 88 % 1014,7 hPa 0,0 l/m 0,0 km/h (0 Bft) S-SW 202 8,0 C 9,9 C
29.09.2012 07:41 10,1 C 88 % 1014,7 hPa 0,0 l/m 0,0 km/h (0 Bft) S 180 8,2 C 10,1 C
29.09.2012 07:46 10,1 C 87 % 1014,7 hPa 0,0 l/m 3,6 km/h (1 Bft) S-SW 202 8,0 C 10,1 C
29.09.2012 07:51 10,1 C 87 % 1014,6 hPa 0,0 l/m 5,4 km/h (1 Bft) S-SO 157 8,0 C 10,1 C
29.09.2012 07:56 10,1 C 87 % 1014,8 hPa 0,0 l/m 2,5 km/h (1 Bft) S-SO 157 8,0 C 10,1 C
29.09.2012 08:01 10,1 C 87 % 1014,7 hPa 0,0 l/m 5,8 km/h (2 Bft) S-SW 202 8,0 C 10,1 C
29.09.2012 08:06 10,2 C 87 % 1014,7 hPa 0,0 l/m 3,2 km/h (1 Bft) S 180 8,1 C 10,2 C
29.09.2012 08:11 10,2 C 87 % 1014,8 hPa 0,0 l/m 0,0 km/h (0 Bft) S-SO 157 8,1 C 10,2 C
29.09.2012 08:16 10,3 C 87 % 1014,7 hPa 0,0 l/m 1,4 km/h (1 Bft) SW 225 8,2 C 10,3 C
29.09.2012 08:21 10,4 C 87 % 1014,9 hPa 0,0 l/m 2,9 km/h (1 Bft) SW 225 8,3 C 10,4 C
29.09.2012 08:26 10,5 C 87 % 1014,8 hPa 0,0 l/m 4,0 km/h (1 Bft) SW 225 8,4 C 10,5 C
29.09.2012 08:31 10,6 C 87 % 1015,0 hPa 0,0 l/m 5,0 km/h (1 Bft) S-SW 202 8,5 C 10,6 C
29.09.2012 08:36 10,6 C 86 % 1014,9 hPa 0,0 l/m 8,6 km/h (2 Bft) S-SW 202 8,4 C 10,6 C
29.09.2012 08:41 10,7 C 86 % 1014,9 hPa 0,0 l/m 4,0 km/h (1 Bft) S-SW 202 8,5 C 10,7 C
29.09.2012 08:46 10,6 C 86 % 1014,9 hPa 0,0 l/m 3,2 km/h (1 Bft) S 180 8,4 C 10,6 C
29.09.2012 08:51 10,8 C 86 % 1015,0 hPa 0,0 l/m 4,7 km/h (1 Bft) SW 225 8,6 C 10,8 C
29.09.2012 08:56 11,0 C 86 % 1014,9 hPa 0,0 l/m 5,4 km/h (1 Bft) S 180 8,7 C 11,0 C
29.09.2012 09:01 11,3 C 86 % 1014,9 hPa 0,0 l/m 7,6 km/h (2 Bft) S-SW 202 9,0 C 11,3 C
29.09.2012 09:06 11,5 C 85 % 1015,0 hPa 0,0 l/m 3,6 km/h (1 Bft) S 180 9,1 C 11,5 C
29.09.2012 09:11 11,6 C 85 % 1014,9 hPa 0,0 l/m 4,3 km/h (1 Bft) S-SO 157 9,2 C 11,6 C
29.09.2012 09:16 11,9 C 84 % 1014,8 hPa 0,0 l/m 7,2 km/h (2 Bft) S-SO 157 9,3 C 11,9 C
29.09.2012 09:21 12,1 C 84 % 1015,0 hPa 0,0 l/m 9,4 km/h (2 Bft) S 180 9,5 C 12,1 C
29.09.2012 09:26 12,2 C 84 % 1015,0 hPa 0,0 l/m 4,7 km/h (1 Bft) SW 225 9,6 C 12,2 C
29.09.2012 09:31 12,5 C 83 % 1015,0 hPa 0,0 l/m 10,1 km/h (2 Bft) SW 225 9,7 C 12,5 C
29.09.2012 09:36 12,8 C 83 % 1015,0 hPa 0,0 l/m 3,6 km/h (1 Bft) SW 225 10,0 C 12,8 C
29.09.2012 09:41 13,0 C 82 % 1014,9 hPa 0,0 l/m 10,1 km/h (2 Bft) W-SW 247 10,0 C 13,0 C
29.09.2012 09:46 13,3 C 81 % 1014,9 hPa 0,0 l/m 4,3 km/h (1 Bft) W-SW 247 10,1 C 13,3 C
29.09.2012 09:51 13,5 C 80 % 1014,9 hPa 0,0 l/m 11,9 km/h (2 Bft) SW 225 10,1 C 13,5 C
29.09.2012 09:56 13,8 C 79 % 1014,8 hPa 0,0 l/m 6,5 km/h (2 Bft) SW 225 10,2 C 13,8 C
29.09.2012 10:01 13,9 C 78 % 1014,9 hPa 0,0 l/m 6,8 km/h (2 Bft) W-SW 247 10,1 C 13,9 C
29.09.2012 10:06 14,1 C 78 % 1014,7 hPa 0,0 l/m 13,7 km/h (3 Bft) S 180 10,3 C 14,1 C
29.09.2012 10:11 14,4 C 77 % 1014,8 hPa 0,0 l/m 10,1 km/h (2 Bft) W-SW 247 10,4 C 14,4 C
29.09.2012 10:16 14,5 C 77 % 1014,8 hPa 0,0 l/m 7,9 km/h (2 Bft) SW 225 10,5 C 14,5 C
29.09.2012 10:21 14,6 C 75 % 1014,9 hPa 0,0 l/m 11,2 km/h (2 Bft) SW 225 10,2 C 14,6 C
29.09.2012 10:26 14,6 C 75 % 1014,8 hPa 0,0 l/m 8,6 km/h (2 Bft) S-SW 202 10,2 C 14,6 C
29.09.2012 10:31 14,6 C 74 % 1014,7 hPa 0,0 l/m 7,6 km/h (2 Bft) W-SW 247 10,0 C 14,6 C
29.09.2012 10:36 14,6 C 74 % 1014,9 hPa 0,0 l/m 7,6 km/h (2 Bft) SW 225 10,0 C 14,6 C
29.09.2012 10:41 14,8 C 75 % 1014,7 hPa 0,0 l/m 9,7 km/h (2 Bft) S 180 10,4 C 14,8 C
29.09.2012 10:46 14,9 C 74 % 1014,8 hPa 0,0 l/m 10,4 km/h (2 Bft) SW 225 10,3 C 14,9 C
29.09.2012 10:51 14,9 C 74 % 1014,7 hPa 0,0 l/m 14,4 km/h (3 Bft) W-SW 247 10,3 C 14,9 C
29.09.2012 10:56 14,9 C 73 % 1014,6 hPa 0,0 l/m 11,5 km/h (2 Bft) SW 225 10,1 C 14,9 C
29.09.2012 11:01 14,9 C 73 % 1014,5 hPa 0,0 l/m 14,8 km/h (3 Bft) W-SW 247 10,1 C 14,9 C
29.09.2012 11:06 14,9 C 74 % 1014,5 hPa 0,0 l/m 5,4 km/h (1 Bft) SW 225 10,3 C 14,9 C
29.09.2012 11:11 14,9 C 74 % 1014,6 hPa 0,0 l/m 14,4 km/h (3 Bft) S-SW 202 10,3 C 14,9 C
29.09.2012 11:16 15,2 C 73 % 1014,4 hPa 0,0 l/m 8,6 km/h (2 Bft) S-SW 202 10,4 C 15,2 C
29.09.2012 11:21 15,5 C 73 % 1014,5 hPa 0,0 l/m 14,4 km/h (3 Bft) SW 225 10,7 C 15,5 C
29.09.2012 11:26 15,8 C 71 % 1014,4 hPa 0,0 l/m 10,1 km/h (2 Bft) S-SW 202 10,6 C 15,8 C
29.09.2012 11:31 15,9 C 71 % 1014,4 hPa 0,0 l/m 14,8 km/h (3 Bft) S-SW 202 10,6 C 15,9 C
29.09.2012 11:36 16,1 C 70 % 1014,4 hPa 0,0 l/m 6,5 km/h (2 Bft) W-SW 247 10,6 C 16,1 C
29.09.2012 11:41 16,3 C 69 % 1014,2 hPa 0,0 l/m 23,4 km/h (4 Bft) W-SW 247 10,6 C 16,3 C
29.09.2012 11:46 16,4 C 67 % 1014,2 hPa 0,0 l/m 10,8 km/h (2 Bft) W 270 10,3 C 16,4 C
29.09.2012 11:51 16,6 C 67 % 1014,1 hPa 0,0 l/m 6,5 km/h (2 Bft) W-NW 292 10,4 C 16,6 C
29.09.2012 11:56 16,8 C 65 % 1014,1 hPa 0,0 l/m 23,4 km/h (4 Bft) W 270 10,2 C 16,8 C
29.09.2012 12:01 16,9 C 65 % 1014,0 hPa 0,0 l/m 20,2 km/h (4 Bft) SW 225 10,3 C 16,9 C
29.09.2012 12:06 17,1 C 63 % 1014,0 hPa 0,0 l/m 12,2 km/h (2 Bft) W 270 10,0 C 17,1 C
29.09.2012 12:11 17,1 C 62 % 1014,0 hPa 0,0 l/m 25,2 km/h (4 Bft) W 270 9,8 C 17,1 C
29.09.2012 12:16 17,2 C 62 % 1014,0 hPa 0,0 l/m 15,1 km/h (3 Bft) W-SW 247 9,9 C 17,2 C
29.09.2012 12:21 17,3 C 63 % 1013,9 hPa 0,0 l/m 18,4 km/h (3 Bft) SW 225 10,2 C 17,3 C
29.09.2012 12:26 17,6 C 62 % 1013,9 hPa 0,0 l/m 12,2 km/h (2 Bft) W-SW 247 10,2 C 17,6 C
29.09.2012 12:31 17,8 C 60 % 1013,9 hPa 0,0 l/m 13,7 km/h (3 Bft) W-SW 247 9,9 C 17,8 C
29.09.2012 12:36 17,6 C 61 % 1013,8 hPa 0,0 l/m 23,4 km/h (4 Bft) W-SW 247 10,0 C 17,6 C
29.09.2012 12:41 17,6 C 61 % 1013,8 hPa 0,0 l/m 18,7 km/h (3 Bft) W-SW 247 10,0 C 17,6 C
29.09.2012 12:46 17,6 C 60 % 1013,9 hPa 0,0 l/m 15,5 km/h (3 Bft) S-SW 202 9,7 C 17,6 C
29.09.2012 12:51 17,5 C 60 % 1013,9 hPa 0,0 l/m 7,2 km/h (2 Bft) W 270 9,6 C 17,5 C
29.09.2012 12:56 17,4 C 60 % 1013,8 hPa 0,0 l/m 9,0 km/h (2 Bft) W-SW 247 9,6 C 17,4 C
29.09.2012 13:01 17,3 C 60 % 1013,8 hPa 0,0 l/m 13,0 km/h (3 Bft) SW 225 9,5 C 17,3 C
29.09.2012 13:06 17,2 C 61 % 1013,8 hPa 0,0 l/m 21,6 km/h (4 Bft) W-SW 247 9,6 C 17,2 C
29.09.2012 13:11 17,3 C 61 % 1013,8 hPa 0,0 l/m 7,9 km/h (2 Bft) SW 225 9,7 C 17,3 C
29.09.2012 13:16 17,5 C 61 % 1013,8 hPa 0,0 l/m 9,0 km/h (2 Bft) W-SW 247 9,9 C 17,5 C
29.09.2012 13:21 17,6 C 59 % 1013,7 hPa 0,0 l/m 15,5 km/h (3 Bft) W 270 9,5 C 17,6 C
29.09.2012 13:26 17,4 C 59 % 1013,6 hPa 0,0 l/m 25,6 km/h (4 Bft) W 270 9,3 C 17,4 C
29.09.2012 13:31 17,4 C 60 % 1013,5 hPa 0,0 l/m 11,2 km/h (2 Bft) SW 225 9,6 C 17,4 C
29.09.2012 13:36 17,4 C 59 % 1013,7 hPa 0,0 l/m 16,6 km/h (3 Bft) S-SW 202 9,3 C 17,4 C
29.09.2012 13:41 17,3 C 59 % 1013,6 hPa 0,0 l/m 10,8 km/h (2 Bft) W-SW 247 9,2 C 17,3 C
29.09.2012 13:46 17,3 C 60 % 1013,6 hPa 0,0 l/m 18,7 km/h (3 Bft) W-SW 247 9,5 C 17,3 C
29.09.2012 13:51 17,5 C 59 % 1013,5 hPa 0,0 l/m 11,2 km/h (2 Bft) SW 225 9,4 C 17,5 C
29.09.2012 13:56 17,6 C 60 % 1013,5 hPa 0,0 l/m 18,7 km/h (3 Bft) W-SW 247 9,7 C 17,6 C
29.09.2012 14:01 17,8 C 60 % 1013,4 hPa 0,0 l/m 23,4 km/h (4 Bft) W-NW 292 9,9 C 17,8 C
29.09.2012 14:06 17,9 C 59 % 1013,4 hPa 0,0 l/m 22,7 km/h (4 Bft) W-SW 247 9,8 C 17,9 C
29.09.2012 14:11 17,9 C 59 % 1013,4 hPa 0,0 l/m 9,0 km/h (2 Bft) W 270 9,8 C 17,9 C
29.09.2012 14:16 17,9 C 59 % 1013,4 hPa 0,0 l/m 16,9 km/h (3 Bft) W-SW 247 9,8 C 17,9 C
29.09.2012 14:21 18,0 C 59 % 1013,3 hPa 0,0 l/m 5,8 km/h (2 Bft) NW 315 9,9 C 18,0 C
29.09.2012 14:26 18,2 C 59 % 1013,2 hPa 0,0 l/m 24,1 km/h (4 Bft) W 270 10,1 C 18,2 C
29.09.2012 14:31 18,1 C 58 % 1013,2 hPa 0,0 l/m 20,2 km/h (4 Bft) W-SW 247 9,7 C 18,1 C
29.09.2012 14:36 18,1 C 59 % 1013,1 hPa 0,0 l/m 15,5 km/h (3 Bft) W 270 10,0 C 18,1 C
29.09.2012 14:41 18,1 C 58 % 1013,0 hPa 0,0 l/m 19,4 km/h (3 Bft) W-SW 247 9,7 C 18,1 C
29.09.2012 14:46 17,9 C 59 % 1013,0 hPa 0,0 l/m 19,8 km/h (3 Bft) W-SW 247 9,8 C 17,9 C
29.09.2012 14:51 17,9 C 59 % 1013,2 hPa 0,0 l/m 17,3 km/h (3 Bft) W-SW 247 9,8 C 17,9 C
29.09.2012 14:56 18,1 C 60 % 1013,1 hPa 0,0 l/m 14,0 km/h (3 Bft) W-SW 247 10,2 C 18,1 C
29.09.2012 15:01 18,3 C 60 % 1013,1 hPa 0,0 l/m 15,1 km/h (3 Bft) W-SW 247 10,4 C 18,3 C
29.09.2012 15:06 18,2 C 58 % 1013,1 hPa 0,0 l/m 18,0 km/h (3 Bft) W-SW 247 9,8 C 18,2 C
29.09.2012 15:11 18,1 C 59 % 1013,0 hPa 0,0 l/m 12,2 km/h (2 Bft) W-SW 247 10,0 C 18,1 C
29.09.2012 15:16 17,9 C 59 % 1013,0 hPa 0,0 l/m 25,9 km/h (4 Bft) W 270 9,8 C 17,9 C
29.09.2012 15:21 17,8 C 58 % 1012,9 hPa 0,0 l/m 17,6 km/h (3 Bft) SW 225 9,4 C 17,8 C
29.09.2012 15:26 17,6 C 59 % 1012,9 hPa 0,0 l/m 12,2 km/h (2 Bft) W-SW 247 9,5 C 17,6 C
29.09.2012 15:31 17,4 C 58 % 1013,1 hPa 0,0 l/m 21,6 km/h (4 Bft) W-SW 247 9,1 C 17,4 C
29.09.2012 15:36 17,1 C 60 % 1013,3 hPa 0,0 l/m 23,0 km/h (4 Bft) W 270 9,3 C 17,1 C
29.09.2012 15:41 16,5 C 61 % 1013,4 hPa 0,0 l/m 23,4 km/h (4 Bft) W-NW 292 9,0 C 16,5 C
29.09.2012 15:46 15,8 C 64 % 1013,5 hPa 0,0 l/m 18,0 km/h (3 Bft) W-NW 292 9,0 C 15,8 C
29.09.2012 15:51 15,2 C 68 % 1013,5 hPa 0,0 l/m 4,0 km/h (1 Bft) W 270 9,3 C 15,2 C
29.09.2012 15:56 14,9 C 70 % 1013,4 hPa 0,0 l/m 7,6 km/h (2 Bft) W 270 9,5 C 14,9 C
29.09.2012 16:01 14,9 C 72 % 1013,5 hPa 0,0 l/m 14,4 km/h (3 Bft) W-NW 292 9,9 C 14,9 C
29.09.2012 16:06 14,9 C 73 % 1013,5 hPa 0,0 l/m 9,7 km/h (2 Bft) W 270 10,1 C 14,9 C
29.09.2012 16:11 14,9 C 73 % 1013,5 hPa 0,0 l/m 13,0 km/h (3 Bft) NW 315 10,1 C 14,9 C
29.09.2012 16:16 14,9 C 73 % 1013,5 hPa 0,0 l/m 5,0 km/h (1 Bft) W-NW 292 10,1 C 14,9 C
29.09.2012 16:21 14,9 C 72 % 1013,6 hPa 0,0 l/m 7,9 km/h (2 Bft) W 270 9,9 C 14,9 C
29.09.2012 16:26 14,9 C 72 % 1013,9 hPa 0,0 l/m 19,4 km/h (3 Bft) W-SW 247 9,9 C 14,9 C
29.09.2012 16:31 14,9 C 71 % 1013,8 hPa 0,0 l/m 11,9 km/h (2 Bft) S-SW 202 9,7 C 14,9 C
29.09.2012 16:36 14,9 C 71 % 1013,9 hPa 0,0 l/m 7,9 km/h (2 Bft) W-NW 292 9,7 C 14,9 C
29.09.2012 16:41 14,9 C 70 % 1013,9 hPa 0,0 l/m 13,0 km/h (3 Bft) W-NW 292 9,5 C 14,9 C
29.09.2012 16:46 15,3 C 70 % 1013,7 hPa 0,0 l/m 6,1 km/h (2 Bft) SW 225 9,9 C 15,3 C
29.09.2012 16:51 15,6 C 70 % 1013,8 hPa 0,0 l/m 18,0 km/h (3 Bft) W-SW 247 10,1 C 15,6 C
29.09.2012 16:56 15,9 C 68 % 1013,8 hPa 0,0 l/m 9,7 km/h (2 Bft) S-SW 202 10,0 C 15,9 C
29.09.2012 17:01 15,9 C 66 % 1013,8 hPa 0,0 l/m 9,4 km/h (2 Bft) W-NW 292 9,6 C 15,9 C
29.09.2012 17:06 15,8 C 66 % 1013,8 hPa 0,0 l/m 5,8 km/h (2 Bft) SW 225 9,5 C 15,8 C
29.09.2012 17:11 15,7 C 67 % 1013,9 hPa 0,0 l/m 13,7 km/h (3 Bft) W 270 9,6 C 15,7 C
29.09.2012 17:16 15,6 C 68 % 1013,9 hPa 0,0 l/m 8,6 km/h (2 Bft) W 270 9,7 C 15,6 C
29.09.2012 17:21 15,6 C 68 % 1013,8 hPa 0,0 l/m 5,4 km/h (1 Bft) W-NW 292 9,7 C 15,6 C
29.09.2012 17:26 15,4 C 68 % 1013,8 hPa 0,0 l/m 18,0 km/h (3 Bft) W-SW 247 9,5 C 15,4 C
29.09.2012 17:31 15,4 C 68 % 1013,9 hPa 0,0 l/m 9,0 km/h (2 Bft) W 270 9,5 C 15,4 C
29.09.2012 17:36 15,3 C 68 % 1014,0 hPa 0,0 l/m 18,4 km/h (3 Bft) W-NW 292 9,4 C 15,3 C
29.09.2012 17:41 15,1 C 66 % 1013,9 hPa 0,0 l/m 6,5 km/h (2 Bft) W-SW 247 8,8 C 15,1 C
29.09.2012 17:46 14,9 C 67 % 1014,1 hPa 0,0 l/m 25,2 km/h (4 Bft) NW 315 8,8 C 14,9 C
29.09.2012 17:51 14,8 C 68 % 1014,2 hPa 0,0 l/m 6,1 km/h (2 Bft) W-SW 247 9,0 C 14,8 C
29.09.2012 17:56 14,6 C 68 % 1014,3 hPa 0,0 l/m 9,7 km/h (2 Bft) W-SW 247 8,8 C 14,6 C
29.09.2012 18:01 14,3 C 70 % 1014,5 hPa 0,0 l/m 17,3 km/h (3 Bft) W-NW 292 8,9 C 14,3 C
29.09.2012 18:06 14,2 C 70 % 1014,7 hPa 0,0 l/m 18,7 km/h (3 Bft) W-NW 292 8,8 C 14,2 C
29.09.2012 18:11 13,9 C 68 % 1014,6 hPa 0,0 l/m 8,3 km/h (2 Bft) W 270 8,1 C 13,9 C
29.09.2012 18:16 13,7 C 68 % 1014,7 hPa 0,0 l/m 14,8 km/h (3 Bft) NW 315 7,9 C 13,7 C
29.09.2012 18:21 13,3 C 71 % 1014,8 hPa 0,0 l/m 20,2 km/h (4 Bft) W-NW 292 8,2 C 13,3 C
29.09.2012 18:26 12,9 C 72 % 1014,8 hPa 0,0 l/m 8,3 km/h (2 Bft) W-NW 292 8,0 C 12,9 C
29.09.2012 18:31 12,5 C 74 % 1014,7 hPa 0,0 l/m 10,8 km/h (2 Bft) W 270 8,0 C 12,5 C
29.09.2012 18:36 12,3 C 75 % 1014,9 hPa 0,0 l/m 8,3 km/h (2 Bft) W-NW 292 8,0 C 12,3 C
29.09.2012 18:41 12,1 C 76 % 1014,9 hPa 0,0 l/m 8,6 km/h (2 Bft) NW 315 8,0 C 12,1 C
29.09.2012 18:46 12,0 C 76 % 1014,8 hPa 0,0 l/m 3,2 km/h (1 Bft) W 270 7,9 C 12,0 C
29.09.2012 18:51 11,9 C 76 % 1014,9 hPa 0,0 l/m 4,3 km/h (1 Bft) S-SW 202 7,8 C 11,9 C
29.09.2012 18:56 11,9 C 77 % 1014,9 hPa 0,0 l/m 5,0 km/h (1 Bft) W 270 8,0 C 11,9 C
29.09.2012 19:01 11,9 C 77 % 1015,0 hPa 0,0 l/m 4,7 km/h (1 Bft) W 270 8,0 C 11,9 C
29.09.2012 19:06 11,8 C 78 % 1014,9 hPa 0,0 l/m 6,1 km/h (2 Bft) NW 315 8,1 C 11,8 C
29.09.2012 19:11 11,8 C 78 % 1015,0 hPa 0,0 l/m 6,1 km/h (2 Bft) W 270 8,1 C 11,8 C
29.09.2012 19:16 11,8 C 79 % 1015,0 hPa 0,0 l/m 4,3 km/h (1 Bft) W 270 8,3 C 11,8 C
29.09.2012 19:21 11,8 C 79 % 1015,0 hPa 0,0 l/m 4,0 km/h (1 Bft) W 270 8,3 C 11,8 C
29.09.2012 19:26 11,6 C 80 % 1015,2 hPa 0,0 l/m 9,7 km/h (2 Bft) W 270 8,3 C 11,6 C
29.09.2012 19:31 11,6 C 80 % 1015,3 hPa 0,0 l/m 3,6 km/h (1 Bft) W-SW 247 8,3 C 11,6 C
29.09.2012 19:36 11,6 C 80 % 1015,4 hPa 0,0 l/m 16,2 km/h (3 Bft) W 270 8,3 C 11,6 C
29.09.2012 19:41 11,6 C 80 % 1015,4 hPa 0,0 l/m 6,8 km/h (2 Bft) W-NW 292 8,3 C 11,6 C
29.09.2012 19:46 11,6 C 80 % 1015,5 hPa 0,0 l/m 13,7 km/h (3 Bft) W 270 8,3 C 11,6 C
29.09.2012 19:51 11,6 C 80 % 1015,5 hPa 0,0 l/m 4,3 km/h (1 Bft) W-NW 292 8,3 C 11,6 C
29.09.2012 19:56 11,6 C 80 % 1015,5 hPa 0,0 l/m 9,7 km/h (2 Bft) NW 315 8,3 C 11,6 C
29.09.2012 20:01 11,6 C 80 % 1015,7 hPa 0,0 l/m 6,5 km/h (2 Bft) NW 315 8,3 C 11,6 C
29.09.2012 20:06 11,5 C 80 % 1015,7 hPa 0,0 l/m 5,0 km/h (1 Bft) NW 315 8,2 C 11,5 C
29.09.2012 20:11 11,4 C 80 % 1015,8 hPa 0,0 l/m 8,3 km/h (2 Bft) W 270 8,1 C 11,4 C
29.09.2012 20:16 11,3 C 80 % 1015,8 hPa 0,0 l/m 8,3 km/h (2 Bft) W-NW 292 8,0 C 11,3 C
29.09.2012 20:21 11,3 C 80 % 1016,0 hPa 0,0 l/m 5,4 km/h (1 Bft) W 270 8,0 C 11,3 C
29.09.2012 20:26 11,1 C 80 % 1015,9 hPa 0,0 l/m 7,6 km/h (2 Bft) W-SW 247 7,8 C 11,1 C
29.09.2012 20:31 11,0 C 81 % 1016,0 hPa 0,0 l/m 0,0 km/h (0 Bft) W-NW 292 7,9 C 11,0 C
29.09.2012 20:36 10,9 C 81 % 1016,0 hPa 0,0 l/m 3,2 km/h (1 Bft) W 270 7,8 C 10,9 C
29.09.2012 20:41 10,9 C 81 % 1016,0 hPa 0,0 l/m 4,0 km/h (1 Bft) SW 225 7,8 C 10,9 C
29.09.2012 20:46 10,8 C 81 % 1016,0 hPa 0,0 l/m 8,3 km/h (2 Bft) W-SW 247 7,7 C 10,8 C
29.09.2012 20:51 10,6 C 81 % 1016,2 hPa 0,0 l/m 14,0 km/h (3 Bft) W 270 7,5 C 10,6 C
29.09.2012 20:56 10,5 C 82 % 1016,2 hPa 0,0 l/m 8,6 km/h (2 Bft) W-SW 247 7,6 C 10,5 C
29.09.2012 21:01 10,4 C 82 % 1016,2 hPa 0,0 l/m 7,6 km/h (2 Bft) W 270 7,5 C 10,4 C
29.09.2012 21:06 10,4 C 82 % 1016,3 hPa 0,0 l/m 10,8 km/h (2 Bft) W-SW 247 7,5 C 10,4 C
29.09.2012 21:11 10,3 C 82 % 1016,4 hPa 0,0 l/m 5,0 km/h (1 Bft) S-SW 202 7,4 C 10,3 C
29.09.2012 21:16 10,2 C 82 % 1016,5 hPa 0,0 l/m 7,2 km/h (2 Bft) W-SW 247 7,3 C 10,2 C
29.09.2012 21:21 10,2 C 82 % 1016,4 hPa 0,0 l/m 16,9 km/h (3 Bft) W-SW 247 7,3 C 10,2 C
29.09.2012 21:26 10,1 C 82 % 1016,7 hPa 0,0 l/m 9,4 km/h (2 Bft) W-SW 247 7,2 C 10,1 C
29.09.2012 21:31 10,1 C 82 % 1016,7 hPa 0,0 l/m 16,2 km/h (3 Bft) W 270 7,2 C 10,1 C
29.09.2012 21:36 10,1 C 82 % 1016,7 hPa 0,0 l/m 16,9 km/h (3 Bft) W-SW 247 7,2 C 10,1 C
29.09.2012 21:41 10,1 C 82 % 1016,8 hPa 0,0 l/m 13,0 km/h (3 Bft) W-SW 247 7,2 C 10,1 C
29.09.2012 21:46 10,1 C 82 % 1016,8 hPa 0,0 l/m 15,1 km/h (3 Bft) W 270 7,2 C 10,1 C
29.09.2012 21:51 10,0 C 82 % 1016,8 hPa 0,0 l/m 12,2 km/h (2 Bft) W-SW 247 7,1 C 8,3 C
29.09.2012 21:56 9,9 C 83 % 1016,8 hPa 0,0 l/m 12,2 km/h (2 Bft) SW 225 7,2 C 8,2 C
29.09.2012 22:01 9,9 C 83 % 1017,1 hPa 0,0 l/m 9,0 km/h (2 Bft) W 270 7,2 C 8,7 C
29.09.2012 22:06 9,9 C 83 % 1017,1 hPa 0,0 l/m 13,7 km/h (3 Bft) W 270 7,2 C 8,0 C
29.09.2012 22:11 9,8 C 83 % 1017,0 hPa 0,0 l/m 9,7 km/h (2 Bft) W 270 7,1 C 8,4 C
29.09.2012 22:16 9,8 C 83 % 1017,0 hPa 0,0 l/m 14,8 km/h (3 Bft) W-SW 247 7,1 C 7,7 C
29.09.2012 22:21 9,8 C 83 % 1017,0 hPa 0,0 l/m 21,2 km/h (4 Bft) W 270 7,1 C 7,0 C
29.09.2012 22:26 9,8 C 82 % 1017,2 hPa 0,0 l/m 4,3 km/h (1 Bft) SW 225 6,9 C 9,8 C
29.09.2012 22:31 9,8 C 82 % 1017,1 hPa 0,0 l/m 15,8 km/h (3 Bft) W-SW 247 6,9 C 7,6 C
29.09.2012 22:36 9,6 C 82 % 1017,1 hPa 0,0 l/m 5,0 km/h (1 Bft) W-SW 247 6,7 C 9,3 C
29.09.2012 22:41 9,6 C 82 % 1017,3 hPa 0,0 l/m 13,0 km/h (3 Bft) W-SW 247 6,7 C 7,7 C
29.09.2012 22:46 9,6 C 83 % 1017,3 hPa 0,0 l/m 13,0 km/h (3 Bft) W-SW 247 6,9 C 7,7 C
29.09.2012 22:51 9,5 C 83 % 1017,4 hPa 0,0 l/m 7,9 km/h (2 Bft) W-SW 247 6,8 C 8,4 C
29.09.2012 22:56 9,5 C 83 % 1017,3 hPa 0,0 l/m 11,5 km/h (2 Bft) W-SW 247 6,8 C 7,8 C
29.09.2012 23:01 9,5 C 83 % 1017,2 hPa 0,0 l/m 14,0 km/h (3 Bft) W-SW 247 6,8 C 7,4 C
29.09.2012 23:06 9,5 C 83 % 1017,2 hPa 0,0 l/m 19,8 km/h (3 Bft) W-SW 247 6,8 C 6,8 C
29.09.2012 23:11 9,5 C 83 % 1017,3 hPa 0,0 l/m 9,4 km/h (2 Bft) W-SW 247 6,8 C 8,1 C
29.09.2012 23:16 9,4 C 83 % 1017,4 hPa 0,0 l/m 6,1 km/h (2 Bft) S-SW 202 6,7 C 8,8 C
29.09.2012 23:21 9,4 C 83 % 1017,5 hPa 0,0 l/m 9,0 km/h (2 Bft) W-SW 247 6,7 C 8,1 C
29.09.2012 23:26 9,4 C 83 % 1017,5 hPa 0,0 l/m 20,5 km/h (4 Bft) W-SW 247 6,7 C 6,6 C
29.09.2012 23:31 9,4 C 84 % 1017,6 hPa 0,0 l/m 14,4 km/h (3 Bft) W-SW 247 6,8 C 7,3 C
29.09.2012 23:36 9,4 C 84 % 1017,7 hPa 0,0 l/m 9,7 km/h (2 Bft) W 270 6,8 C 8,0 C
29.09.2012 23:41 9,4 C 84 % 1017,7 hPa 0,0 l/m 9,4 km/h (2 Bft) SW 225 6,8 C 8,0 C
29.09.2012 23:46 9,4 C 84 % 1017,6 hPa 0,0 l/m 10,1 km/h (2 Bft) W-SW 247 6,8 C 7,9 C
29.09.2012 23:51 9,3 C 84 % 1017,7 hPa 0,0 l/m 7,9 km/h (2 Bft) W-SW 247 6,7 C 8,2 C
29.09.2012 23:56 9,3 C 84 % 1017,7 hPa 0,0 l/m 7,9 km/h (2 Bft) W-SW 247 6,7 C 8,2 C
_ Min-Zeit 05:26 14:31 15:21 - 01:26 - - 04:36 05:31
Minimum _ 8,7 C 58 % 1012,9 hPa - 0,0 km/h (0 Bft) - - 6,6 C 6,4 C
_ Max-Zeit 15:01 05:36 23:36 00:01 15:16 - - 11:21 15:01
Maximum _ 18,3 C 88 % 1017,7 hPa 0,0 l/m 25,9 km/h
W (4 Bft)
- - 10,7 C 18,3 C
Durchschnitt _ 12,4 C 77 % 1015,1 hPa #0,0 l/m 9,1 km/h (2 Bft) W-SW - 8,4 C 12,2 C
(c) by David Heller